Time;durP1;ratioP1;P1;durP2;ratioP2;P2;SDS_P1;SDS_P2;PMS_P1;PMS_P2;Temp;Humidity;BMP_temperature;BMP_pressure;BME280_temperature;BME280_humidity;BME280_pressure;Samples;Min_cycle;Max_cycle;Signal;HPM_P1;HPM_P2
2024/04/07 01:36:49;;;;;;;10.20;5.63;;;;;;;14.78;81.45;99628.22;6035556;23;21415;31
2024/04/07 01:39:15;;;;;;;8.23;4.93;;;;;;;14.54;81.77;99591.06;4916146;29;20562;-93
2024/04/07 01:41:40;;;;;;;5.90;4.40;;;;;;;14.44;83.46;99602.81;4882728;29;20071;-93
2024/04/07 01:44:06;;;;;;;5.75;4.35;;;;;;;14.50;82.88;99596.25;4882909;29;20559;-94
2024/04/07 01:46:31;;;;;;;5.68;4.18;;;;;;;14.35;83.71;99589.09;4883133;29;20024;-93
2024/04/07 01:48:57;;;;;;;8.20;4.68;;;;;;;14.33;83.40;99591.28;4868186;29;20030;-94
2024/04/07 01:51:22;;;;;;;10.90;4.32;;;;;;;14.44;83.96;99604.72;4883072;29;20036;-92
2024/04/07 01:53:48;;;;;;;5.22;3.72;;;;;;;14.29;83.92;99601.09;4883176;29;20510;-93
2024/04/07 01:56:51;;;;;;;6.75;3.65;;;;;;;14.34;84.10;99616.50;4866618;29;20028;-92
2024/04/07 01:59:17;;;;;;;6.03;3.75;;;;;;;14.22;83.84;99594.41;4899446;29;20203;-93
2024/04/07 02:01:42;;;;;;;5.90;3.92;;;;;;;14.24;84.33;99612.00;4883837;29;20440;-92
2024/04/07 02:04:08;;;;;;;5.97;3.60;;;;;;;14.11;84.92;99599.09;4867086;29;20025;-92
2024/04/07 02:06:33;;;;;;;8.40;3.45;;;;;;;14.07;85.07;99590.78;4866886;29;20056;-93
2024/04/07 02:08:59;;;;;;;4.78;3.08;;;;;;;13.91;84.89;99568.44;4883963;29;20399;-92
2024/04/07 02:11:24;;;;;;;4.15;2.53;;;;;;;13.91;85.61;99590.09;4868084;29;20034;-93
2024/04/07 02:13:51;;;;;;;5.45;3.20;;;;;;;13.97;84.81;99604.41;4882115;29;20032;-93
2024/04/07 02:16:16;;;;;;;5.35;3.10;;;;;;;13.88;85.79;99585.28;4867194;29;20127;-93
2024/04/07 02:18:42;;;;;;;5.20;2.70;;;;;;;13.83;85.80;99581.78;4866768;29;20060;-93
2024/04/07 02:21:07;;;;;;;7.88;2.95;;;;;;;13.76;86.22;99587.53;4882971;29;20020;-93
2024/04/07 02:23:33;;;;;;;3.50;2.65;;;;;;;13.65;86.50;99584.09;4851667;29;20088;-93
2024/04/07 02:25:59;;;;;;;4.95;3.00;;;;;;;13.57;86.56;99583.91;4882977;29;20360;-93
2024/04/07 02:28:25;;;;;;;5.40;2.60;;;;;;;13.72;86.37;99602.75;4868729;29;20024;-93
2024/04/07 02:30:51;;;;;;;4.03;2.70;;;;;;;13.71;86.65;99617.34;4882600;29;20459;-93
2024/04/07 02:33:16;;;;;;;5.57;3.00;;;;;;;13.63;86.44;99604.41;4866378;29;20032;-94
2024/04/07 02:35:42;;;;;;;4.65;3.03;;;;;;;13.61;86.77;99598.47;4885991;29;20037;-93
2024/04/07 02:38:10;;;;;;;4.85;2.85;;;;;;;13.61;86.94;99601.19;4870313;29;20594;-93
2024/04/07 02:40:35;;;;;;;6.05;3.22;;;;;;;13.59;87.22;99600.66;4874636;29;20039;-92
2024/04/07 02:43:01;;;;;;;5.28;3.00;;;;;;;13.42;87.31;99574.00;4905525;29;20028;-93
2024/04/07 02:48:10;;;;;;;4.43;3.03;;;;;;;13.62;87.61;99609.03;4887185;29;20043;-93
2024/04/07 02:50:36;;;;;;;5.25;3.20;;;;;;;13.45;87.89;99578.88;4889732;29;20032;-93
2024/04/07 02:53:02;;;;;;;4.53;3.05;;;;;;;13.48;88.29;99591.81;4888906;29;20020;-93
2024/04/07 02:55:28;;;;;;;4.82;2.85;;;;;;;13.27;87.87;99567.59;4904970;29;20024;-93
2024/04/07 02:57:54;;;;;;;4.18;2.85;;;;;;;13.43;87.18;99594.59;4888969;29;20517;-94
2024/04/07 03:00:20;;;;;;;6.95;3.08;;;;;;;13.34;87.45;99594.34;4889865;29;20028;-94
2024/04/07 03:02:46;;;;;;;6.63;3.20;;;;;;;13.36;87.12;99600.28;4905522;29;20032;-93
2024/04/07 03:05:11;;;;;;;3.85;2.88;;;;;;;13.34;87.08;99595.19;4889666;29;20032;-94
2024/04/07 03:07:37;;;;;;;5.22;3.00;;;;;;;13.23;87.52;99590.88;4904663;29;20104;-93
2024/04/07 03:10:03;;;;;;;4.25;3.08;;;;;;;13.28;87.53;99606.25;4888873;29;20031;-94
2024/04/07 03:12:29;;;;;;;4.40;3.35;;;;;;;13.21;87.30;99597.66;4888334;29;20474;-92
2024/04/07 03:14:54;;;;;;;4.53;3.60;;;;;;;13.09;87.18;99585.31;4888726;29;20024;-92
2024/04/07 03:17:21;;;;;;;3.85;3.13;;;;;;;13.28;87.18;99609.78;4905134;29;20028;-92
2024/04/07 03:20:06;;;;;;;4.57;3.72;;;;;;;13.33;87.39;99628.69;4870890;29;20033;-93
2024/04/07 03:22:31;;;;;;;5.55;4.15;;;;;;;13.27;87.54;99629.78;4902237;29;20060;-92
2024/04/07 03:24:56;;;;;;;4.82;3.80;;;;;;;13.08;87.52;99612.63;4870654;29;20040;-93
2024/04/07 03:27:22;;;;;;;7.53;3.80;;;;;;;13.08;88.02;99607.22;4885312;29;20032;-91
2024/04/07 03:29:47;;;;;;;5.65;3.55;;;;;;;13.12;87.50;99609.06;4901425;29;20119;-92
2024/04/07 03:32:13;;;;;;;4.68;3.65;;;;;;;13.17;87.21;99634.47;4885181;29;20103;-92
2024/04/07 03:34:38;;;;;;;6.53;3.70;;;;;;;13.01;87.94;99637.25;4888716;29;20035;-93
2024/04/07 03:37:07;;;;;;;7.78;3.78;;;;;;;12.90;88.35;99632.97;4887323;29;20033;-94
2024/04/07 03:39:33;;;;;;;4.95;3.50;;;;;;;13.00;87.78;99656.44;4892037;29;20070;-93
2024/04/07 03:41:58;;;;;;;4.93;3.50;;;;;;;12.86;87.70;99642.72;4908064;29;20027;-93
2024/04/07 03:44:25;;;;;;;5.15;3.40;;;;;;;12.69;87.62;99624.94;4906910;29;20427;-93
2024/04/07 03:46:50;;;;;;;4.55;3.20;;;;;;;12.82;87.03;99642.44;4907326;29;20062;-92
2024/04/07 03:49:16;;;;;;;5.20;3.50;;;;;;;12.74;87.39;99645.72;4891474;29;20039;-94
2024/04/07 03:51:41;;;;;;;4.45;3.60;;;;;;;12.73;87.75;99636.81;4891198;29;20175;-93
2024/04/07 03:54:07;;;;;;;6.05;4.13;;;;;;;12.55;88.10;99634.72;4888154;29;20046;-93
2024/04/07 03:56:32;;;;;;;6.70;4.40;;;;;;;12.61;87.79;99659.81;4903733;29;20024;-93
2024/04/07 03:58:58;;;;;;;7.43;5.20;;;;;;;12.61;87.97;99671.44;4919962;29;20031;-94
2024/04/07 04:01:24;;;;;;;5.40;4.65;;;;;;;12.58;87.86;99669.28;4910635;28;20419;-93
2024/04/07 04:03:49;;;;;;;4.93;4.05;;;;;;;12.54;87.42;99652.00;4903594;29;20031;-94
2024/04/07 04:06:15;;;;;;;7.75;4.20;;;;;;;12.63;86.64;99666.56;4904021;29;20028;-92
2024/04/07 04:08:41;;;;;;;7.45;4.15;;;;;;;12.77;87.05;99690.31;4888396;29;20467;-92
2024/04/07 04:11:07;;;;;;;6.68;4.22;;;;;;;12.56;88.02;99660.66;4887718;29;20479;-93
2024/04/07 04:13:35;;;;;;;6.93;5.15;;;;;;;12.40;88.51;99650.97;4890470;29;20487;-94
2024/04/07 04:16:01;;;;;;;5.72;4.70;;;;;;;12.42;88.58;99657.72;4888296;29;20403;-93
2024/04/07 04:18:27;;;;;;;7.70;5.03;;;;;;;12.67;88.61;99691.16;4903527;29;20032;-92
2024/04/07 04:21:30;;;;;;;8.70;5.95;;;;;;;12.69;88.76;99699.78;4888255;29;20063;-92
2024/04/07 04:23:56;;;;;;;7.47;4.93;;;;;;;12.55;88.93;99691.44;4904069;29;20028;-93
2024/04/07 04:26:21;;;;;;;8.30;4.70;;;;;;;12.53;88.92;99694.44;4905144;29;20044;-93
2024/04/07 04:28:47;;;;;;;7.47;4.80;;;;;;;12.46;88.61;99668.78;4904541;29;20032;-93
2024/04/07 04:31:12;;;;;;;8.05;5.55;;;;;;;12.40;88.32;99662.56;4889643;29;20028;-93
2024/04/07 04:33:38;;;;;;;8.05;5.50;;;;;;;12.61;88.08;99705.75;4888899;29;20407;-93
2024/04/07 04:36:14;;;;;;;7.00;5.80;;;;;;;12.43;88.03;99688.22;4889622;29;20087;-93
2024/04/07 04:38:40;;;;;;;9.20;4.65;;;;;;;12.44;88.13;99689.84;4888536;29;20056;-92
2024/04/07 04:41:12;;;;;;;6.70;5.07;;;;;;;12.52;87.71;99709.00;4887787;29;20119;-92
2024/04/07 04:43:37;;;;;;;8.35;5.82;;;;;;;12.40;88.27;99689.56;4903717;29;20031;-93
2024/04/07 04:46:06;;;;;;;8.15;6.10;;;;;;;12.51;88.82;99711.97;4888403;29;20035;-93
2024/04/07 04:48:35;;;;;;;6.55;5.72;;;;;;;12.60;88.86;99721.16;4888282;29;20091;-92
2024/04/07 04:51:01;;;;;;;8.65;7.30;;;;;;;12.69;88.89;99738.41;4888986;29;20051;-92
2024/04/07 04:53:27;;;;;;;10.00;6.63;;;;;;;12.47;89.19;99698.22;4888544;29;20122;-93
2024/04/07 04:55:53;;;;;;;7.43;6.00;;;;;;;12.46;89.58;99698.50;4903808;29;20032;-93
2024/04/07 04:58:19;;;;;;;7.90;6.38;;;;;;;12.62;89.35;99705.47;4888636;29;20039;-94
2024/04/07 05:00:46;;;;;;;7.75;5.18;;;;;;;12.67;89.20;99712.75;4888182;29;20032;-94
2024/04/07 05:03:12;;;;;;;8.70;5.40;;;;;;;12.76;88.48;99731.91;4904097;29;20036;-93
2024/04/07 05:05:38;;;;;;;7.00;5.45;;;;;;;12.63;88.69;99717.09;4903490;29;20403;-94
2024/04/07 05:08:05;;;;;;;7.53;5.35;;;;;;;12.64;88.77;99710.63;4887699;29;20032;-92
2024/04/07 05:10:31;;;;;;;8.82;6.60;;;;;;;12.90;88.62;99727.56;4888943;29;20023;-93
2024/04/07 05:12:57;;;;;;;7.75;5.47;;;;;;;12.86;89.02;99729.19;4887601;29;20036;-92
2024/04/07 05:15:23;;;;;;;8.80;5.82;;;;;;;12.81;89.06;99731.91;4887424;29;20407;-92
2024/04/07 05:17:48;;;;;;;12.18;5.70;;;;;;;12.80;89.78;99714.88;4907960;29;20016;-91
2024/04/07 05:20:35;;;;;;;8.77;5.50;;;;;;;13.00;90.03;99749.16;4886674;29;20119;-93
2024/04/07 05:23:00;;;;;;;7.35;5.05;;;;;;;12.90;89.51;99733.75;4902763;29;20028;-92
2024/04/07 05:25:26;;;;;;;6.50;5.28;;;;;;;12.98;89.47;99745.91;4887788;29;20039;-92
2024/04/07 05:27:52;;;;;;;5.28;4.28;;;;;;;12.89;89.18;99723.25;4887983;29;20028;-93
2024/04/07 05:30:18;;;;;;;6.03;4.47;;;;;;;13.06;88.59;99722.91;4888041;29;20041;-94
2024/04/07 05:32:43;;;;;;;6.40;4.40;;;;;;;13.18;88.08;99745.03;4888233;29;20101;-93
2024/04/07 05:35:09;;;;;;;7.70;4.57;;;;;;;13.37;87.62;99749.88;4902572;29;20052;-93
2024/04/07 05:37:35;;;;;;;4.50;4.05;;;;;;;13.31;87.30;99744.47;4902078;29;20063;-93
2024/04/07 05:40:01;;;;;;;6.00;4.30;;;;;;;13.32;87.15;99729.88;4902248;29;20030;-93
2024/04/07 05:42:27;;;;;;;5.75;4.40;;;;;;;13.43;87.76;99741.44;4890196;29;20106;-94
2024/04/07 05:44:53;;;;;;;4.90;4.20;;;;;;;13.58;87.34;99755.97;4889960;29;20046;-94
2024/04/07 05:47:19;;;;;;;8.45;4.50;;;;;;;13.62;87.62;99751.63;4887630;29;20035;-92
2024/04/07 05:49:44;;;;;;;7.25;4.40;;;;;;;13.63;87.38;99750.53;4887537;29;20032;-91
2024/04/07 05:52:10;;;;;;;5.70;4.60;;;;;;;13.84;86.99;99764.75;4874473;29;20415;-93
2024/04/07 05:54:36;;;;;;;5.90;4.38;;;;;;;13.91;86.33;99766.06;4889348;29;20047;-93
2024/04/07 05:57:01;;;;;;;7.22;4.30;;;;;;;13.94;85.71;99756.56;4889614;29;20532;-93
2024/04/07 05:59:27;;;;;;;7.82;4.28;;;;;;;13.98;85.07;99757.63;4889624;29;20110;-93
2024/04/07 06:01:53;;;;;;;7.93;4.75;;;;;;;14.06;84.53;99775.97;4891087;29;20031;-92
2024/04/07 06:04:19;;;;;;;15.98;5.03;;;;;;;14.20;83.99;99789.69;4891130;29;20028;-92
2024/04/07 06:06:45;;;;;;;7.72;5.00;;;;;;;14.06;84.30;99756.22;4890918;29;20046;-93
2024/04/07 06:09:10;;;;;;;7.03;4.97;;;;;;;14.31;84.13;99780.38;4890380;29;20035;-93
2024/04/07 06:11:36;;;;;;;7.30;4.85;;;;;;;14.33;82.83;99770.06;4906056;29;20096;-93
2024/04/07 06:14:02;;;;;;;2.67;2.08;;;;;;;14.34;81.14;99763.59;4889990;29;20023;-93
2024/04/07 06:16:28;;;;;;;2.55;1.85;;;;;;;14.50;80.71;99758.03;4890281;29;20072;-92
2024/04/07 06:18:54;;;;;;;2.80;1.83;;;;;;;14.77;79.97;99768.34;4887254;29;20118;-91
2024/04/07 06:21:21;;;;;;;11.00;6.30;;;;;;;15.03;80.91;99789.81;4889769;29;20027;-93
2024/04/07 06:23:47;;;;;;;11.82;6.95;;;;;;;14.88;81.35;99766.34;4890442;29;20450;-93
2024/04/07 06:26:13;;;;;;;13.70;5.63;;;;;;;15.04;80.15;99788.69;4905826;29;20051;-93
2024/04/07 06:28:39;;;;;;;11.30;7.25;;;;;;;15.05;80.18;99772.16;4905401;29;20051;-93
2024/04/07 06:31:04;;;;;;;12.82;7.18;;;;;;;14.95;80.76;99759.50;4888705;29;20032;-92
2024/04/07 06:33:30;;;;;;;12.15;6.72;;;;;;;15.04;80.80;99762.38;4905128;29;20024;-92
2024/04/07 06:35:57;;;;;;;14.20;6.50;;;;;;;15.29;79.46;99784.88;4889381;29;20024;-93
2024/04/07 06:38:25;;;;;;;7.32;6.30;;;;;;;15.36;79.38;99780.72;4904983;29;20065;-92
2024/04/07 06:40:51;;;;;;;10.05;5.00;;;;;;;15.57;78.00;99785.91;4889469;29;20028;-93
2024/04/07 06:43:17;;;;;;;6.18;4.43;;;;;;;15.81;77.25;99806.78;4889117;29;20711;-93
2024/04/07 06:45:42;;;;;;;3.75;1.40;;;;;;;15.73;73.30;99786.56;4885018;29;20034;-92
2024/04/07 06:48:08;;;;;;;3.95;1.30;;;;;;;15.90;72.78;99792.28;4886532;29;20120;-92
2024/04/07 06:50:34;;;;;;;10.63;1.30;;;;;;;16.03;72.16;99803.50;4886678;29;20502;-93
2024/04/07 06:52:59;;;;;;;3.25;1.40;;;;;;;16.19;72.29;99812.25;4887148;29;20499;-93
2024/04/07 06:55:25;;;;;;;2.45;1.27;;;;;;;16.20;71.19;99809.22;4888698;29;20159;-92
2024/04/07 06:57:51;;;;;;;3.33;1.02;;;;;;;16.32;70.70;99806.84;4873672;29;20032;-93
2024/04/07 07:00:16;;;;;;;3.67;1.30;;;;;;;16.43;70.96;99812.13;4905682;29;20035;-95
2024/04/07 07:02:45;;;;;;;3.40;1.08;;;;;;;16.43;69.22;99809.41;4873573;29;20099;-94
2024/04/07 07:05:12;;;;;;;4.13;1.30;;;;;;;16.39;68.52;99795.59;4906324;29;20028;-94
2024/04/07 07:07:38;;;;;;;2.65;1.30;;;;;;;16.57;68.19;99802.91;4890797;29;20044;-94
2024/04/07 07:10:07;;;;;;;4.30;1.38;;;;;;;16.66;65.36;99815.81;4888316;29;20072;-92
2024/04/07 07:12:35;;;;;;;3.75;1.45;;;;;;;16.84;64.49;99835.94;4905692;29;20074;-94
2024/04/07 07:15:03;;;;;;;2.75;1.33;;;;;;;16.71;64.90;99823.91;4888772;29;20032;-92
2024/04/07 07:17:28;;;;;;;2.33;1.30;;;;;;;16.89;66.20;99830.41;4871804;29;20032;-94
2024/04/07 07:19:57;;;;;;;3.22;1.20;;;;;;;16.83;65.77;99816.13;4901191;29;20034;-93
2024/04/07 07:22:23;;;;;;;5.63;1.50;;;;;;;16.80;66.51;99815.88;4894462;29;20019;-93
2024/04/07 07:24:48;;;;;;;4.20;1.50;;;;;;;16.93;66.10;99826.81;4909989;29;20026;-94
2024/04/07 07:27:14;;;;;;;2.50;1.25;;;;;;;16.95;65.92;99819.16;4893793;29;20032;-93
2024/04/07 07:29:39;;;;;;;2.40;1.23;;;;;;;16.96;65.75;99830.84;4894882;29;20030;-93
2024/04/07 07:32:06;;;;;;;2.70;1.67;;;;;;;17.06;66.75;99833.38;4909789;29;20059;-93
2024/04/07 07:34:35;;;;;;;3.13;1.30;;;;;;;17.19;65.81;99839.94;4894151;29;20107;-92
2024/04/07 07:37:00;;;;;;;2.05;1.40;;;;;;;17.06;65.47;99808.88;4894070;29;20036;-92
2024/04/07 07:39:26;;;;;;;2.47;1.40;;;;;;;17.06;66.41;99811.59;4894610;29;20054;-94
2024/04/07 07:41:52;;;;;;;2.78;1.40;;;;;;;17.30;66.49;99838.63;4893819;29;20483;-93
2024/04/07 07:44:20;;;;;;;2.53;1.30;;;;;;;17.34;66.25;99836.91;4883073;29;20035;-93
2024/04/07 07:46:45;;;;;;;4.50;1.45;;;;;;;17.15;65.40;99815.22;4890087;29;20026;-94
2024/04/07 07:49:11;;;;;;;3.85;1.63;;;;;;;17.41;65.37;99835.69;4873673;29;20111;-93
2024/04/07 07:51:36;;;;;;;2.88;1.40;;;;;;;17.41;64.20;99835.69;4875746;29;20032;-94
2024/04/07 07:54:02;;;;;;;4.78;1.50;;;;;;;17.42;65.31;99821.78;4891715;29;20027;-93
2024/04/07 07:56:29;;;;;;;2.50;1.50;;;;;;;17.64;64.37;99833.88;4874644;29;20028;-93
2024/04/07 07:58:59;;;;;;;3.50;1.60;;;;;;;17.76;64.66;99826.81;4890175;29;20020;-93
2024/04/07 08:01:24;;;;;;;2.65;1.40;;;;;;;17.77;61.56;99847.47;4890706;29;20024;-93
2024/04/07 08:03:50;;;;;;;3.95;2.25;;;;;;;17.85;60.89;99831.59;4874069;29;20067;-93
2024/04/07 08:06:16;;;;;;;2.70;1.70;;;;;;;18.04;58.96;99832.22;4874635;29;20048;-94
2024/04/07 08:08:41;;;;;;;8.57;2.08;;;;;;;18.21;56.89;99833.50;4874195;29;20087;-92
2024/04/07 08:11:07;;;;;;;4.18;1.70;;;;;;;18.19;56.13;99833.78;4889498;29;20115;-93
2024/04/07 08:13:33;;;;;;;2.95;1.75;;;;;;;18.16;56.64;99834.44;4876043;29;20083;-93
2024/04/07 08:15:59;;;;;;;5.43;2.10;;;;;;;17.96;57.90;99819.34;4892492;29;20052;-94
2024/04/07 08:18:24;;;;;;;3.42;1.85;;;;;;;18.12;58.49;99834.22;4876574;29;20036;-93
2024/04/07 08:20:54;;;;;;;6.78;1.80;;;;;;;18.13;57.66;99871.25;4874621;29;20036;-94
2024/04/07 08:23:20;;;;;;;3.90;1.63;;;;;;;18.20;57.12;99837.31;4874281;29;20104;-93
2024/04/07 08:25:45;;;;;;;5.07;1.85;;;;;;;18.51;55.50;99856.50;4874766;29;20479;-94
2024/04/07 08:28:11;;;;;;;3.85;2.17;;;;;;;18.84;56.08;99857.06;4873586;29;20035;-94
2024/04/07 08:30:38;;;;;;;2.88;1.73;;;;;;;18.86;55.41;99848.56;4889646;29;20024;-94
2024/04/07 08:33:06;;;;;;;3.55;1.80;;;;;;;18.68;55.68;99829.34;4888076;29;20028;-94
2024/04/07 08:35:31;;;;;;;4.03;2.20;;;;;;;18.83;55.86;99849.22;4872792;29;20036;-94
2024/04/07 08:37:57;;;;;;;2.53;1.67;;;;;;;18.86;55.62;99840.41;4870177;29;20064;-94
2024/04/07 08:40:23;;;;;;;3.33;1.73;;;;;;;18.61;54.57;99834.44;4886360;29;20084;-93
2024/04/07 08:42:49;;;;;;;3.60;1.95;;;;;;;18.55;54.21;99854.75;4900723;29;20066;-93
2024/04/07 08:45:14;;;;;;;4.03;2.10;;;;;;;18.51;54.07;99831.94;4885270;29;20029;-94
2024/04/07 08:47:40;;;;;;;3.60;2.20;;;;;;;18.48;54.88;99833.38;4903337;29;20560;-94
2024/04/07 08:50:07;;;;;;;3.15;1.83;;;;;;;18.55;54.27;99835.66;4879888;29;20107;-93
2024/04/07 08:52:32;;;;;;;2.95;2.03;;;;;;;18.75;55.29;99854.25;4870466;29;20052;-94
2024/04/07 08:54:58;;;;;;;4.13;1.90;;;;;;;18.63;55.32;99850.50;4870441;29;20061;-94
2024/04/07 08:57:24;;;;;;;3.25;1.70;;;;;;;18.56;54.03;99835.38;4885522;29;20029;-94
2024/04/07 08:59:52;;;;;;;2.95;1.90;;;;;;;18.52;54.93;99856.19;4870454;29;20032;-94
2024/04/07 09:02:18;;;;;;;3.67;1.98;;;;;;;18.65;54.36;99843.59;4870384;29;20104;-94
2024/04/07 09:04:44;;;;;;;3.28;2.00;;;;;;;18.96;52.83;99834.66;4869801;29;20025;-93
2024/04/07 09:07:11;;;;;;;3.03;1.88;;;;;;;19.07;52.49;99829.75;4870783;29;20032;-94
2024/04/07 09:09:36;;;;;;;4.63;2.20;;;;;;;19.25;52.75;99844.28;4900975;29;20124;-94
2024/04/07 09:12:02;;;;;;;5.45;3.17;;;;;;;19.26;54.52;99848.63;4869906;29;20028;-93
2024/04/07 09:14:28;;;;;;;4.60;2.28;;;;;;;19.38;54.28;99838.72;4869789;29;20053;-93
2024/04/07 09:17:20;;;;;;;4.38;2.40;;;;;;;19.62;54.62;99861.28;4900357;29;20028;-92
2024/04/07 09:19:46;;;;;;;3.17;2.03;;;;;;;19.54;52.12;99846.47;4898709;29;20039;-93
2024/04/07 09:22:12;;;;;;;3.88;2.40;;;;;;;19.25;53.10;99864.19;4884724;29;20024;-93
2024/04/07 09:24:40;;;;;;;3.42;2.20;;;;;;;18.98;54.96;99848.81;4869142;29;20032;-93
2024/04/07 09:27:13;;;;;;;5.22;2.10;;;;;;;19.01;55.59;99841.91;4884967;29;20034;-92
2024/04/07 09:29:40;;;;;;;3.17;1.92;;;;;;;19.06;54.89;99845.31;4859477;29;20024;-92
2024/04/07 09:32:09;;;;;;;7.30;1.85;;;;;;;19.01;53.45;99856.38;4899448;29;20027;-92
2024/04/07 09:34:38;;;;;;;2.83;1.73;;;;;;;19.10;52.46;99856.44;4902685;29;20043;-94
2024/04/07 09:37:04;;;;;;;3.78;1.60;;;;;;;19.15;52.10;99853.56;4890281;29;20076;-92
2024/04/07 09:39:30;;;;;;;5.05;1.65;;;;;;;19.09;51.22;99844.72;4892005;29;20486;-93
2024/04/07 09:41:58;;;;;;;5.10;1.65;;;;;;;19.24;50.97;99861.81;4890831;29;20027;-93
2024/04/07 09:44:24;;;;;;;4.50;1.70;;;;;;;19.33;49.87;99866.16;4906579;29;20035;-92
2024/04/07 09:46:49;;;;;;;2.10;1.42;;;;;;;19.37;49.68;99875.34;4893258;29;20478;-95
2024/04/07 09:49:16;;;;;;;3.42;1.40;;;;;;;19.58;47.24;99869.31;4892523;29;20099;-95
2024/04/07 09:51:48;;;;;;;3.75;1.60;;;;;;;19.44;46.94;99857.69;4891419;29;20040;-94
2024/04/07 09:54:32;;;;;;;1.88;1.35;;;;;;;19.84;45.99;99863.13;4924060;29;20425;-95
2024/04/07 09:56:58;;;;;;;3.85;1.40;;;;;;;19.87;45.97;99866.03;4922707;29;20418;-93
2024/04/07 09:59:24;;;;;;;4.18;1.40;;;;;;;19.81;46.28;99848.19;4905909;29;20031;-93
2024/04/07 10:01:49;;;;;;;4.13;1.50;;;;;;;19.90;44.59;99867.31;4906818;29;20475;-93
2024/04/07 10:04:15;;;;;;;5.07;1.75;;;;;;;20.07;43.78;99874.78;4891343;29;20035;-94
2024/04/07 10:06:40;;;;;;;3.00;1.67;;;;;;;20.01;44.38;99863.19;4889962;29;20037;-94
2024/04/07 10:09:06;;;;;;;2.38;1.48;;;;;;;19.90;44.61;99862.69;4906233;29;20031;-93
2024/04/07 10:11:34;;;;;;;4.95;1.70;;;;;;;19.77;45.32;99860.88;4890513;29;20063;-93
2024/04/07 10:14:00;;;;;;;2.85;1.50;;;;;;;19.75;45.76;99868.59;4886794;29;20501;-92
2024/04/07 10:16:26;;;;;;;5.63;1.70;;;;;;;19.70;45.63;99855.88;4887514;29;20028;-96
2024/04/07 10:18:52;;;;;;;3.42;2.30;;;;;;;19.59;46.82;99846.34;4903754;29;20424;-92
2024/04/07 10:21:18;;;;;;;3.83;1.58;;;;;;;19.59;46.06;99851.81;4888553;29;20114;-93
2024/04/07 10:23:43;;;;;;;4.57;2.40;;;;;;;19.64;46.01;99864.53;4889060;29;20032;-94
2024/04/07 10:26:09;;;;;;;3.67;1.95;;;;;;;19.70;45.25;99865.97;4888033;29;20514;-93
2024/04/07 10:28:54;;;;;;;4.68;1.95;;;;;;;19.87;45.18;99871.50;4903828;29;20059;-94
2024/04/07 10:31:28;;;;;;;2.70;1.50;;;;;;;19.73;43.84;99838.84;4887349;29;20032;-93
2024/04/07 10:33:56;;;;;;;4.70;1.70;;;;;;;19.70;44.34;99844.94;4887674;29;20518;-92
2024/04/07 10:36:22;;;;;;;5.38;1.30;;;;;;;19.80;42.85;99830.19;4887797;29;20029;-92
2024/04/07 10:38:54;;;;;;;2.47;1.35;;;;;;;19.95;42.89;99850.78;4891147;29;20056;-94
2024/04/07 10:41:30;;;;;;;2.33;1.30;;;;;;;19.99;41.39;99838.88;4887847;29;20570;-94
2024/04/07 10:43:56;;;;;;;8.75;3.55;;;;;;;19.98;41.08;99847.41;4903604;29;20070;-94
2024/04/07 10:46:22;;;;;;;2.47;1.42;;;;;;;20.08;41.42;99866.22;4887142;29;20399;-94
2024/04/07 10:48:48;;;;;;;4.20;1.52;;;;;;;20.01;41.81;99848.72;4886820;29;20028;-94
2024/04/07 10:51:15;;;;;;;5.00;1.40;;;;;;;19.97;40.94;99846.59;4903001;29;20039;-93
2024/04/07 10:53:42;;;;;;;2.70;1.10;;;;;;;20.16;39.61;99859.16;4890948;29;20031;-94
2024/04/07 10:56:08;;;;;;;3.38;1.38;;;;;;;20.09;39.13;99856.13;4893968;29;20031;-94
2024/04/07 10:58:34;;;;;;;2.53;1.50;;;;;;;20.17;37.96;99856.13;4895788;29;20010;-92
2024/04/07 11:00:59;;;;;;;1.95;1.30;;;;;;;20.15;39.01;99847.44;4910620;29;20028;-92
2024/04/07 11:03:26;;;;;;;5.07;1.27;;;;;;;20.19;37.98;99833.91;4894823;29;20119;-94
2024/04/07 11:05:51;;;;;;;1.95;1.30;;;;;;;20.17;37.65;99828.78;4896238;29;20031;-93
2024/04/07 11:08:18;;;;;;;2.75;1.20;;;;;;;20.29;37.84;99857.41;4894532;29;20469;-92
2024/04/07 11:10:50;;;;;;;3.33;1.15;;;;;;;20.19;36.81;99833.91;4893961;29;20410;-92
2024/04/07 11:13:15;;;;;;;4.30;1.52;;;;;;;20.05;36.44;99825.09;4894783;29;20114;-91
2024/04/07 11:15:41;;;;;;;3.78;1.23;;;;;;;20.24;37.80;99841.16;4894122;29;20067;-93
2024/04/07 11:18:16;;;;;;;3.90;1.10;;;;;;;20.37;36.24;99845.66;4915919;29;20083;-93
2024/04/07 11:20:42;;;;;;;2.55;1.13;;;;;;;20.66;36.75;99846.97;4901486;29;20040;-95
2024/04/07 11:23:09;;;;;;;3.35;1.33;;;;;;;20.57;36.28;99836.00;4893198;29;20055;-94
2024/04/07 11:25:35;;;;;;;2.55;1.20;;;;;;;20.78;35.96;99814.25;4895026;29;20028;-94
2024/04/07 11:28:01;;;;;;;1.92;1.00;;;;;;;20.89;36.43;99834.66;4893047;29;20032;-93
2024/04/07 11:30:34;;;;;;;3.55;1.10;;;;;;;20.74;36.43;99833.25;4909326;29;20030;-94
2024/04/07 11:33:10;;;;;;;3.55;1.33;;;;;;;20.71;36.54;99830.34;4912245;29;20519;-96
2024/04/07 11:35:36;;;;;;;2.65;1.30;;;;;;;20.75;36.89;99855.94;4912796;29;20028;-95
2024/04/07 11:38:05;;;;;;;3.03;1.50;;;;;;;20.50;37.45;99833.75;4895289;29;20047;-95
2024/04/07 11:40:31;;;;;;;1.35;0.90;;;;;;;20.42;38.05;99858.38;4898143;29;20095;-96
2024/04/07 11:42:59;;;;;;;3.97;1.35;;;;;;;20.24;38.94;99831.03;4894880;29;20024;-96
2024/04/07 11:45:25;;;;;;;2.70;1.30;;;;;;;20.05;38.94;99819.63;4968884;23;20056;-92
2024/04/07 11:47:54;;;;;;;2.65;1.40;;;;;;;20.06;39.69;99816.53;4892884;29;20043;-92
2024/04/07 11:50:21;;;;;;;3.10;1.20;;;;;;;20.17;39.74;99838.91;4909733;29;20036;-93
2024/04/07 11:52:46;;;;;;;2.38;1.40;;;;;;;20.14;39.45;99817.69;4893071;29;20032;-92
2024/04/07 11:55:12;;;;;;;1.77;1.13;;;;;;;19.89;37.88;99797.41;4908327;29;20108;-94
2024/04/07 11:57:38;;;;;;;3.30;1.50;;;;;;;20.07;38.45;99818.16;4893520;29;20047;-94
2024/04/07 12:00:04;;;;;;;2.80;1.20;;;;;;;20.03;38.86;99814.47;4909272;29;20032;-93
2024/04/07 12:02:30;;;;;;;2.40;1.50;;;;;;;20.07;38.42;99820.09;4908622;29;20494;-94
2024/04/07 12:04:56;;;;;;;4.30;1.50;;;;;;;19.99;38.98;99803.34;4909019;29;20031;-93
2024/04/07 12:07:21;;;;;;;2.33;1.23;;;;;;;20.09;38.43;99837.78;4892341;29;20414;-93
2024/04/07 12:09:47;;;;;;;5.63;1.30;;;;;;;20.13;38.23;99805.94;4892913;29;20118;-94
2024/04/07 12:12:13;;;;;;;3.60;1.10;;;;;;;20.38;37.49;99817.19;4893517;29;20488;-94
2024/04/07 12:14:39;;;;;;;3.50;1.15;;;;;;;20.46;36.19;99813.66;4891862;29;20526;-94
2024/04/07 12:17:05;;;;;;;2.60;1.38;;;;;;;20.43;35.47;99800.59;4892266;29;20062;-93
2024/04/07 12:19:31;;;;;;;2.88;1.13;;;;;;;20.51;35.96;99807.19;4891977;29;20135;-93
2024/04/07 12:21:57;;;;;;;2.20;1.35;;;;;;;20.58;35.47;99808.31;4899378;29;20032;-93
2024/04/07 12:24:23;;;;;;;3.40;1.00;;;;;;;20.65;36.11;99815.22;4894913;29;20019;-93
2024/04/07 12:26:50;;;;;;;2.15;1.15;;;;;;;20.43;35.87;99813.50;4898418;29;20020;-93
2024/04/07 12:29:16;;;;;;;1.77;1.00;;;;;;;20.31;36.45;99806.72;4892122;29;20098;-95
2024/04/07 12:31:42;;;;;;;2.40;1.20;;;;;;;20.24;35.94;99825.56;4891889;29;20032;-94
2024/04/07 12:34:07;;;;;;;3.22;1.23;;;;;;;20.33;35.35;99831.81;4891578;29;20474;-94
2024/04/07 12:36:33;;;;;;;6.75;1.25;;;;;;;20.36;33.79;99831.19;4891618;29;20111;-93
2024/04/07 12:39:04;;;;;;;2.58;1.30;;;;;;;20.39;33.57;99827.78;4892560;29;20047;-93
2024/04/07 12:41:34;;;;;;;1.52;0.88;;;;;;;20.38;34.42;99817.19;4894267;29;20032;-93
2024/04/07 13:48:06;;;;;;;2.80;1.05;;;;;;;20.90;32.62;99833.53;5166196;23;20528;-92
2024/04/07 13:50:32;;;;;;;1.83;0.65;;;;;;;20.77;32.44;99829.06;4925440;29;20039;-94
2024/04/07 13:52:58;;;;;;;2.50;1.00;;;;;;;20.82;32.70;99833.56;4923467;29;20085;-95
2024/04/07 13:55:24;;;;;;;2.45;1.02;;;;;;;20.77;32.74;99840.00;4910509;29;20055;-94
2024/04/07 13:57:50;;;;;;;4.85;1.05;;;;;;;20.59;33.92;99829.09;4926720;29;20402;-94
2024/04/07 14:00:18;;;;;;;2.80;1.15;;;;;;;20.57;35.89;99871.56;4926936;29;20059;-92
2024/04/07 14:02:43;;;;;;;4.15;1.17;;;;;;;19.87;37.88;99835.19;4908417;29;20031;-92
2024/04/07 14:05:09;;;;;;;4.22;1.10;;;;;;;19.59;39.38;99849.88;4910361;29;20118;-91
2024/04/07 14:07:34;;;;;;;3.85;1.30;;;;;;;19.44;39.78;99860.41;4924479;29;20105;-93
2024/04/07 14:10:01;;;;;;;3.30;1.35;;;;;;;19.23;40.20;99860.19;4909105;29;20031;-92
2024/04/07 14:12:27;;;;;;;2.47;1.10;;;;;;;19.16;40.24;99855.19;4909822;29;20058;-95
2024/04/07 14:14:54;;;;;;;6.00;1.20;;;;;;;19.04;39.79;99865.88;4910270;29;20087;-92